createdAt,value
2023-06-29T00:00:12.145Z,97.8
2023-06-29T00:01:13.007Z,97.9
2023-06-29T00:02:13.032Z,98.43
2023-06-29T00:03:13.391Z,98.43
2023-06-29T00:04:13.437Z,98.24
2023-06-29T00:05:14.591Z,98.24
2023-06-29T00:06:15.126Z,98.14
2023-06-29T00:07:15.513Z,98.14
2023-06-29T00:08:16.351Z,98.05
2023-06-29T00:09:16.940Z,98.14
2023-06-29T00:10:17.833Z,98.43
2023-06-29T00:11:18.571Z,98.14
2023-06-29T00:12:19.077Z,98.24
2023-06-29T00:13:19.611Z,98.05
2023-06-29T00:14:20.450Z,98.33
2023-06-29T00:15:21.360Z,97.75
2023-06-29T00:16:21.979Z,97.95
2023-06-29T00:17:22.919Z,98.24
2023-06-29T00:18:23.792Z,98.14
2023-06-29T00:19:24.344Z,98.52
2023-06-29T00:20:25.205Z,98.05
2023-06-29T00:21:28.218Z,97.95
2023-06-29T00:22:25.925Z,98.43
2023-06-29T00:23:26.773Z,98.81
2023-06-29T00:24:27.539Z,98.52
2023-06-29T00:25:28.217Z,99.1
2023-06-29T00:26:28.959Z,98.71
2023-06-29T00:27:29.550Z,98.81
2023-06-29T00:28:30.313Z,98.62
2023-06-29T00:29:31.174Z,99.19
2023-06-29T00:30:31.704Z,98.81
2023-06-29T00:31:32.609Z,98.81
2023-06-29T00:32:32.720Z,99.38
2023-06-29T00:33:33.231Z,99.48
2023-06-29T00:34:34.245Z,99.38
2023-06-29T00:35:35.012Z,99.48
2023-06-29T00:36:35.499Z,98.52
2023-06-29T00:37:36.189Z,98.91
2023-06-29T00:38:36.760Z,99.38
2023-06-29T00:39:37.328Z,99.38
2023-06-29T00:40:38.022Z,99.19
2023-06-29T00:41:38.776Z,99.19
2023-06-29T00:42:39.723Z,99.19
2023-06-29T00:43:40.218Z,99.29
2023-06-29T00:44:40.635Z,99.19
2023-06-29T00:45:41.253Z,99.15
2023-06-29T00:46:41.529Z,99.48
2023-06-29T00:47:43.020Z,98.81
2023-06-29T00:48:43.297Z,98.76
2023-06-29T00:49:44.034Z,99.38
2023-06-29T00:50:45.018Z,98.38
2023-06-29T00:51:45.733Z,99.19
2023-06-29T00:52:46.426Z,99.1
2023-06-29T00:53:46.913Z,99.48
2023-06-29T00:54:47.333Z,99.48
2023-06-29T00:55:47.744Z,99.19
2023-06-29T00:56:48.236Z,99.19
2023-06-29T00:57:48.940Z,99.19
2023-06-29T00:58:49.677Z,99.38
2023-06-29T00:59:49.616Z,99.67
2023-06-29T01:00:50.402Z,99.38
2023-06-29T01:01:51.209Z,99.29
2023-06-29T01:02:52.234Z,99.58
2023-06-29T01:03:52.946Z,99.05
2023-06-29T01:04:53.121Z,99.15
2023-06-29T01:05:53.903Z,99.33
2023-06-29T01:06:54.664Z,99.52
2023-06-29T01:07:54.634Z,99.33
2023-06-29T01:08:55.351Z,99.33
2023-06-29T01:09:55.916Z,98.86
2023-06-29T01:10:56.605Z,99.43
2023-06-29T01:11:57.312Z,99.24
2023-06-29T01:12:58.013Z,99.33
2023-06-29T01:13:58.738Z,98.95
2023-06-29T01:14:58.751Z,99.62
2023-06-29T01:15:59.401Z,99.43
2023-06-29T01:17:00.291Z,99.24
2023-06-29T01:18:01.386Z,99.15
2023-06-29T01:19:01.828Z,99.62
2023-06-29T01:20:02.723Z,99.24
2023-06-29T01:21:03.699Z,99.15
2023-06-29T01:22:04.633Z,99.24
2023-06-29T01:23:05.772Z,99.43
2023-06-29T01:24:06.107Z,99.33
2023-06-29T01:25:06.601Z,99.81
2023-06-29T01:26:06.738Z,99.62
2023-06-29T01:27:07.327Z,99.81
2023-06-29T01:28:07.842Z,99.62
2023-06-29T01:29:08.160Z,99.62
2023-06-29T01:30:08.891Z,99.62
2023-06-29T01:31:09.412Z,99.72
2023-06-29T01:32:09.710Z,99.52
2023-06-29T01:33:10.112Z,99.72
2023-06-29T01:34:10.072Z,99.43
2023-06-29T01:35:10.501Z,99.43
2023-06-29T01:36:10.632Z,99.24
2023-06-29T01:37:11.644Z,99.81
2023-06-29T01:38:12.343Z,99.62
2023-06-29T01:39:12.856Z,99.81
2023-06-29T01:40:13.625Z,99.81
2023-06-29T01:41:13.794Z,99.72
2023-06-29T01:42:14.093Z,99.43
2023-06-29T01:43:15.377Z,99.62
2023-06-29T01:44:15.875Z,99.43
2023-06-29T01:45:16.493Z,99.43
2023-06-29T01:46:17.465Z,99.24
2023-06-29T01:47:17.531Z,99.24
2023-06-29T01:48:18.180Z,99.52
2023-06-29T01:49:18.887Z,99.62
2023-06-29T01:50:18.997Z,99.15
2023-06-29T01:51:19.867Z,98.95
2023-06-29T01:52:20.265Z,99.15
2023-06-29T01:53:20.198Z,98.95
2023-06-29T01:54:20.643Z,99.15
2023-06-29T01:55:20.884Z,99.62
2023-06-29T01:56:21.983Z,99.62
2023-06-29T01:57:22.896Z,99.62
2023-06-29T01:58:23.618Z,99.91
2023-06-29T01:59:24.517Z,99.62
2023-06-29T02:00:25.011Z,99.72
2023-06-29T02:01:25.535Z,99.72
2023-06-29T02:02:25.973Z,99.24
2023-06-29T02:03:26.873Z,99.52
2023-06-29T02:04:27.205Z,99.99
2023-06-29T02:05:27.967Z,99.99
2023-06-29T02:06:28.366Z,99.99
2023-06-29T02:07:29.369Z,99.99
2023-06-29T02:08:29.124Z,99.99
2023-06-29T02:09:29.831Z,99.99
2023-06-29T02:10:30.566Z,99.99
2023-06-29T02:11:31.064Z,99.96
2023-06-29T02:12:31.817Z,99.99
2023-06-29T02:13:32.599Z,99.99
2023-06-29T02:14:33.519Z,99.99
2023-06-29T02:15:34.311Z,99.99
2023-06-29T02:16:35.139Z,99.99
2023-06-29T02:17:36.201Z,99.99
2023-06-29T02:18:36.935Z,99.99
2023-06-29T02:19:37.457Z,99.99
2023-06-29T02:20:38.394Z,99.99
2023-06-29T02:21:39.467Z,99.99
2023-06-29T02:22:40.310Z,99.99
2023-06-29T02:23:41.018Z,99.99
2023-06-29T02:24:41.764Z,99.96
2023-06-29T02:25:42.710Z,99.99
2023-06-29T02:26:42.846Z,99.99
2023-06-29T02:27:43.980Z,99.99
2023-06-29T02:28:44.876Z,99.99
2023-06-29T02:29:45.605Z,99.99
2023-06-29T02:30:46.084Z,99.99
2023-06-29T02:31:46.938Z,99.99
2023-06-29T02:32:47.160Z,99.99
2023-06-29T02:33:47.642Z,99.99
2023-06-29T02:34:48.574Z,99.99
2023-06-29T02:35:49.375Z,99.99
2023-06-29T02:36:49.185Z,99.99
2023-06-29T02:37:49.969Z,99.99
2023-06-29T02:38:50.331Z,99.99
2023-06-29T02:39:51.289Z,99.96
2023-06-29T02:40:52.264Z,99.99
2023-06-29T02:41:52.969Z,99.99
2023-06-29T02:42:53.885Z,99.99
2023-06-29T02:43:54.393Z,99.99
2023-06-29T02:44:55.102Z,99.99
2023-06-29T02:45:55.907Z,99.99
2023-06-29T02:46:57.005Z,99.99
2023-06-29T02:47:57.639Z,99.99
2023-06-29T02:48:57.883Z,99.99
2023-06-29T02:49:58.636Z,99.99
2023-06-29T02:50:59.378Z,99.99
2023-06-29T02:51:59.336Z,99.99
2023-06-29T02:53:00.095Z,99.99
2023-06-29T02:54:00.608Z,99.99
2023-06-29T02:55:01.477Z,99.99
2023-06-29T02:56:02.320Z,99.99
2023-06-29T02:57:02.427Z,99.99
2023-06-29T02:58:02.965Z,99.99
2023-06-29T02:59:03.940Z,99.99
2023-06-29T03:00:04.632Z,99.99
2023-06-29T03:01:05.187Z,99.99
2023-06-29T03:02:06.329Z,99.99
2023-06-29T03:03:07.341Z,99.99
2023-06-29T03:04:08.060Z,99.99
2023-06-29T03:05:08.945Z,99.99
2023-06-29T03:06:09.564Z,99.99
2023-06-29T03:07:13.305Z,99.99
2023-06-29T03:08:11.156Z,99.99
2023-06-29T03:09:11.659Z,99.99
2023-06-29T03:10:12.338Z,99.99
2023-06-29T03:11:13.392Z,99.99
2023-06-29T03:12:13.709Z,99.99
2023-06-29T03:13:14.398Z,99.99
2023-06-29T03:14:14.939Z,99.99
2023-06-29T03:15:15.448Z,99.99
2023-06-29T03:16:16.891Z,99.99
2023-06-29T03:17:16.963Z,99.99
2023-06-29T03:18:17.667Z,99.99
2023-06-29T03:19:18.385Z,99.99
2023-06-29T03:20:18.915Z,99.99
2023-06-29T03:21:23.964Z,99.99
2023-06-29T03:22:20.742Z,99.99
2023-06-29T03:23:21.330Z,99.99
2023-06-29T03:24:22.026Z,99.99
2023-06-29T03:25:22.328Z,99.99
2023-06-29T03:26:23.143Z,99.99
2023-06-29T03:27:23.346Z,99.99
2023-06-29T03:28:24.286Z,99.99
2023-06-29T03:29:24.181Z,99.99
2023-06-29T03:30:24.882Z,99.99
2023-06-29T03:31:25.795Z,99.99
2023-06-29T03:32:25.630Z,99.99
2023-06-29T03:33:26.325Z,99.99
2023-06-29T03:34:27.020Z,99.99
2023-06-29T03:35:27.976Z,99.99
2023-06-29T03:36:28.239Z,99.99
2023-06-29T03:37:29.045Z,99.99
2023-06-29T03:38:29.984Z,99.99
2023-06-29T03:39:30.694Z,99.99
2023-06-29T03:40:30.975Z,99.99
2023-06-29T03:41:31.854Z,99.99
2023-06-29T03:42:31.983Z,99.99
2023-06-29T03:43:32.680Z,99.99
2023-06-29T03:44:33.593Z,99.99
2023-06-29T03:45:34.514Z,99.99
2023-06-29T03:46:34.997Z,99.99
2023-06-29T03:47:35.520Z,99.99
2023-06-29T03:48:36.101Z,99.99
2023-06-29T03:49:36.236Z,99.99
2023-06-29T03:50:36.847Z,99.99
2023-06-29T03:51:37.428Z,99.99
2023-06-29T03:52:38.185Z,99.99
2023-06-29T03:53:39.122Z,99.99
2023-06-29T03:54:39.619Z,99.99
2023-06-29T03:55:39.926Z,99.99
2023-06-29T03:56:40.238Z,99.99
2023-06-29T03:57:40.971Z,99.99
2023-06-29T03:58:41.868Z,99.99
2023-06-29T03:59:42.212Z,99.99
2023-06-29T04:00:43.144Z,99.99
2023-06-29T04:01:43.921Z,99.99
2023-06-29T04:02:44.027Z,99.99
2023-06-29T04:03:44.947Z,99.99
2023-06-29T04:04:45.964Z,99.99
2023-06-29T04:05:46.799Z,99.99
2023-06-29T04:06:47.578Z,99.99
2023-06-29T04:07:47.756Z,99.99
2023-06-29T04:08:48.298Z,99.99
2023-06-29T04:09:48.212Z,99.99
2023-06-29T04:10:48.934Z,99.99
2023-06-29T04:11:49.441Z,99.99
2023-06-29T04:12:50.165Z,99.99
2023-06-29T04:13:50.942Z,99.99
2023-06-29T04:14:51.254Z,99.99
2023-06-29T04:15:51.797Z,99.99
2023-06-29T04:17:52.577Z,99.99
2023-06-29T04:18:52.653Z,99.99
2023-06-29T04:19:53.569Z,99.99
2023-06-29T04:20:54.328Z,99.99
2023-06-29T04:21:54.466Z,99.99
2023-06-29T04:22:54.830Z,99.99
2023-06-29T04:23:55.792Z,99.99
2023-06-29T04:24:56.692Z,99.99
2023-06-29T04:25:57.199Z,99.99
2023-06-29T04:26:57.829Z,99.99
2023-06-29T04:27:58.546Z,99.99
2023-06-29T04:28:59.304Z,99.99
2023-06-29T04:30:00.225Z,99.99
2023-06-29T04:31:00.220Z,99.62
2023-06-29T04:32:01.195Z,99.72
2023-06-29T04:33:01.965Z,99.99
2023-06-29T04:34:02.473Z,99.99
2023-06-29T04:35:02.954Z,99.99
2023-06-29T04:36:03.898Z,99.99
2023-06-29T04:38:04.486Z,99.99
2023-06-29T04:39:05.615Z,99.99
2023-06-29T04:40:06.602Z,99.99
2023-06-29T04:41:06.849Z,99.62
2023-06-29T04:42:07.843Z,99.62
2023-06-29T04:43:08.752Z,99.52
2023-06-29T04:44:09.767Z,99.24
2023-06-29T04:45:10.483Z,99.33
2023-06-29T04:46:11.323Z,99.52
2023-06-29T04:47:12.313Z,99.05
2023-06-29T04:48:12.934Z,99.43
2023-06-29T04:49:14.104Z,99.33
2023-06-29T04:50:15.005Z,99.19
2023-06-29T04:51:15.090Z,99.29
2023-06-29T04:52:15.865Z,98.91
2023-06-29T04:53:16.859Z,99
2023-06-29T04:54:17.087Z,98.43
2023-06-29T04:55:17.844Z,98.81
2023-06-29T04:56:18.753Z,99
2023-06-29T04:57:18.781Z,98.33
2023-06-29T04:58:19.928Z,98.33
2023-06-29T04:59:20.653Z,98.52
2023-06-29T05:00:21.421Z,98.52
2023-06-29T05:01:22.034Z,98.43
2023-06-29T05:02:22.802Z,98.05
2023-06-29T05:03:23.420Z,98.14
2023-06-29T05:04:23.887Z,98.14
2023-06-29T05:05:24.816Z,98.24
2023-06-29T05:06:25.719Z,97.85
2023-06-29T05:07:26.038Z,97.38
2023-06-29T05:08:26.220Z,98.05
2023-06-29T05:09:26.968Z,97.71
2023-06-29T05:10:27.931Z,98.1
2023-06-29T05:11:28.696Z,97.8
2023-06-29T05:12:28.613Z,97.61
2023-06-29T05:13:29.332Z,97.23
2023-06-29T05:14:29.851Z,97.14
2023-06-29T05:15:30.787Z,96.94
2023-06-29T05:16:31.417Z,97.52
2023-06-29T05:17:33.691Z,97.04
2023-06-29T05:18:32.443Z,97.33
2023-06-29T05:19:33.288Z,97.33
2023-06-29T05:20:33.836Z,97.33
2023-06-29T05:21:34.573Z,97.23
2023-06-29T05:22:34.936Z,97.14
2023-06-29T05:23:35.929Z,96.84
2023-06-29T05:24:36.930Z,96.75
2023-06-29T05:25:37.663Z,96.08
2023-06-29T05:26:38.150Z,96.08
2023-06-29T05:27:39.468Z,96.08
2023-06-29T05:28:39.324Z,96.03
2023-06-29T05:29:39.417Z,96.56
2023-06-29T05:30:40.365Z,96.51
2023-06-29T05:31:41.476Z,96.51
2023-06-29T05:32:42.543Z,96.22
2023-06-29T05:33:42.848Z,96.13
2023-06-29T05:34:43.351Z,95.56
2023-06-29T05:35:44.179Z,94.98
2023-06-29T05:36:44.792Z,94.79
2023-06-29T05:37:45.793Z,94.79
2023-06-29T05:38:46.382Z,94.98
2023-06-29T05:39:47.117Z,95.56
2023-06-29T05:40:48.434Z,95.17
2023-06-29T05:41:48.186Z,94.5
2023-06-29T05:42:48.944Z,94.12
2023-06-29T05:43:49.858Z,93.97
2023-06-29T05:44:50.772Z,93.11
2023-06-29T05:45:51.355Z,93.11
2023-06-29T05:46:52.422Z,92.91
2023-06-29T05:47:53.119Z,92.91
2023-06-29T05:48:53.084Z,93.59
2023-06-29T05:49:53.427Z,93.97
2023-06-29T05:50:53.909Z,94.84
2023-06-29T05:51:54.632Z,94.93
2023-06-29T05:52:56.584Z,93.68
2023-06-29T05:53:55.603Z,93.78
2023-06-29T05:54:56.333Z,93.82
2023-06-29T05:55:57.034Z,93.63
2023-06-29T05:56:57.637Z,93.82
2023-06-29T05:57:58.051Z,94.02
2023-06-29T05:58:58.142Z,94.12
2023-06-29T05:59:58.843Z,93.35
2023-06-29T06:00:59.638Z,93.35
2023-06-29T06:02:00.428Z,92.86
2023-06-29T06:03:01.443Z,92.39
2023-06-29T06:04:01.891Z,93.06
2023-06-29T06:05:02.182Z,93.06
2023-06-29T06:06:02.733Z,92.48
2023-06-29T06:07:03.518Z,91.52
2023-06-29T06:08:04.459Z,92.68
2023-06-29T06:09:04.793Z,93.06
2023-06-29T06:10:05.133Z,93.25
2023-06-29T06:11:05.953Z,92.43
2023-06-29T06:12:06.687Z,91.42
2023-06-29T06:13:07.323Z,91.57
2023-06-29T06:14:08.826Z,91.52
2023-06-29T06:15:08.559Z,90.7
2023-06-29T06:16:09.548Z,90.61
2023-06-29T06:17:09.507Z,91.47
2023-06-29T06:18:10.624Z,91.47
2023-06-29T06:19:10.496Z,91.33
2023-06-29T06:20:11.046Z,91.38
2023-06-29T06:21:12.009Z,90.7
2023-06-29T06:22:12.714Z,89.65
2023-06-29T06:23:13.444Z,89.26
2023-06-29T06:24:13.662Z,89.26
2023-06-29T06:25:14.628Z,89.26
2023-06-29T06:26:14.576Z,90.46
2023-06-29T06:27:15.319Z,90.42
2023-06-29T06:28:16.297Z,90.56
2023-06-29T06:29:17.209Z,90.46
2023-06-29T06:30:18.203Z,89.79
2023-06-29T06:31:34.962Z,89.4
2023-06-29T06:32:19.628Z,89.12
2023-06-29T06:33:20.250Z,89.02
2023-06-29T06:34:20.952Z,89.4
2023-06-29T06:35:22.577Z,89.31
2023-06-29T06:36:21.415Z,90.17
2023-06-29T06:37:21.446Z,90.46
2023-06-29T06:38:21.984Z,89.69
2023-06-29T06:40:23.856Z,89.5
2023-06-29T06:41:25.088Z,88.83
2023-06-29T06:42:24.764Z,88.64
2023-06-29T06:43:25.682Z,89.07
2023-06-29T06:44:26.380Z,88.49
2023-06-29T06:45:26.682Z,88.01
2023-06-29T06:46:27.675Z,87.24
2023-06-29T06:47:27.900Z,88.01
2023-06-29T06:48:28.170Z,88.59
2023-06-29T06:49:29.144Z,88.59
2023-06-29T06:50:30.193Z,88.63
2023-06-29T06:51:31.210Z,87.96
2023-06-29T06:52:31.955Z,87.76
2023-06-29T06:53:32.905Z,88.06
2023-06-29T06:54:32.882Z,87.86
2023-06-29T06:55:33.845Z,87.96
2023-06-29T06:56:34.563Z,87.48
2023-06-29T06:57:34.880Z,87.33
2023-06-29T06:58:35.820Z,86.46
2023-06-29T06:59:35.935Z,86.75
2023-06-29T07:00:36.266Z,86.08
2023-06-29T07:01:37.109Z,85.98
2023-06-29T07:02:37.943Z,85.11
2023-06-29T07:03:39.179Z,85.74
2023-06-29T07:04:39.906Z,86.22
2023-06-29T07:05:39.847Z,86.6
2023-06-29T07:06:40.797Z,86.31
2023-06-29T07:07:41.680Z,85.74
2023-06-29T07:08:41.659Z,85.39
2023-06-29T07:09:41.778Z,84.81
2023-06-29T07:10:43.012Z,84.72
2023-06-29T07:11:43.315Z,85.1
2023-06-29T07:12:44.279Z,85.3
2023-06-29T07:13:45.289Z,85.87
2023-06-29T07:14:45.700Z,85.43
2023-06-29T07:15:46.621Z,85.05
2023-06-29T07:16:47.625Z,83.99
2023-06-29T07:17:47.764Z,83.61
2023-06-29T07:18:48.702Z,82.83
2023-06-29T07:24:08.006Z,82.2
2023-06-29T07:24:26.184Z,81.91
2023-06-29T07:25:27.035Z,81.14
2023-06-29T07:26:27.875Z,81.14
2023-06-29T07:27:28.422Z,80.94
2023-06-29T07:28:29.194Z,79.02
2023-06-29T07:29:30.501Z,77.48
2023-06-29T07:30:31.321Z,77.48
2023-06-29T07:31:31.626Z,75.93
2023-06-29T07:32:32.188Z,75.65
2023-06-29T07:33:35.791Z,76.71
2023-06-29T07:34:33.378Z,77.51
2023-06-29T07:35:33.908Z,76.36
2023-06-29T07:36:34.115Z,73.95
2023-06-29T07:37:34.837Z,73.27
2023-06-29T07:38:35.766Z,74.05
2023-06-29T07:39:36.942Z,73.27
2023-06-29T07:40:37.971Z,73.85
2023-06-29T07:41:38.313Z,73.27
2023-06-29T07:42:45.466Z,73.6
2023-06-29T07:43:38.870Z,74.37
2023-06-29T07:44:39.613Z,74.57
2023-06-29T07:45:39.840Z,74.51
2023-06-29T07:46:39.835Z,73.73
2023-06-29T07:47:40.534Z,73.58
2023-06-29T07:48:41.201Z,73.09
2023-06-29T07:49:41.716Z,73.09
2023-06-29T07:50:42.592Z,73.03
2023-06-29T07:51:43.708Z,70.32
2023-06-29T07:52:44.437Z,70.42
2023-06-29T07:53:45.601Z,70.72
2023-06-29T07:54:46.618Z,70.94
2023-06-29T07:55:48.077Z,71.23
2023-06-29T07:58:48.505Z,70.17
2023-06-29T07:59:49.096Z,69.53
2023-06-29T08:00:50.006Z,69.53
2023-06-29T08:01:51.075Z,69.14
2023-06-29T08:02:51.166Z,69.27
2023-06-29T08:04:07.868Z,67.05
2023-06-29T08:06:57.393Z,65.34
2023-06-29T08:07:55.998Z,63.59
2023-06-29T08:08:56.561Z,63.01
2023-06-29T08:09:57.360Z,63.43
2023-06-29T08:10:58.370Z,62.78
2023-06-29T08:11:59.093Z,62.55
2023-06-29T08:13:00.015Z,63.04
2023-06-29T08:14:00.649Z,63.23
2023-06-29T08:15:01.619Z,64.47
2023-06-29T08:16:01.886Z,63.69
2023-06-29T08:17:02.923Z,63.88
2023-06-29T08:18:03.305Z,64.72
2023-06-29T08:19:03.567Z,64.53
2023-06-29T08:20:04.049Z,64.43
2023-06-29T08:21:05.182Z,64.34
2023-06-29T08:22:05.727Z,65.2
2023-06-29T08:23:05.661Z,64.14
2023-06-29T08:24:06.380Z,64.53
2023-06-29T08:25:06.806Z,64.43
2023-06-29T08:26:08.032Z,65.3
2023-06-29T08:27:08.634Z,66.02
2023-06-29T08:28:09.424Z,63.78
2023-06-29T08:29:10.172Z,62.85
2023-06-29T08:30:10.791Z,62.36
2023-06-29T08:31:13.266Z,63.04
2023-06-29T08:32:13.070Z,63.91
2023-06-29T08:33:13.924Z,63.2
2023-06-29T08:34:14.345Z,63.49
2023-06-29T08:35:15.048Z,63.1
2023-06-29T08:36:15.968Z,63.23
2023-06-29T08:37:16.637Z,64.3
2023-06-29T08:38:17.331Z,63.85
2023-06-29T08:39:18.317Z,63.17
2023-06-29T08:40:19.311Z,61.65
2023-06-29T08:41:20.311Z,60.35
2023-06-29T08:42:20.467Z,58.72
2023-06-29T08:43:21.476Z,58.62
2023-06-29T08:44:21.793Z,57.49
2023-06-29T08:45:22.971Z,55.57
2023-06-29T08:46:23.122Z,55.76
2023-06-29T08:47:24.103Z,55.96
2023-06-29T08:49:24.558Z,55.5
2023-06-29T08:50:25.341Z,55.4
2023-06-29T08:51:25.848Z,54.82
2023-06-29T08:52:26.207Z,54.72
2023-06-29T08:53:27.308Z,55.04
2023-06-29T08:54:29.074Z,53.38
2023-06-29T08:55:27.838Z,53.58
2023-06-29T08:56:28.637Z,53.67
2023-06-29T08:57:28.825Z,53.48
2023-06-29T08:58:29.878Z,53.02
2023-06-29T08:59:30.820Z,51.95
2023-06-29T09:00:34.765Z,51.97
2023-06-29T09:01:31.963Z,50.12
2023-06-29T09:02:32.797Z,50.04
2023-06-29T09:03:34.033Z,49.66
2023-06-29T09:04:34.363Z,50.63
2023-06-29T09:05:34.330Z,49.56
2023-06-29T09:06:35.716Z,49.27
2023-06-29T09:07:35.600Z,49.54
2023-06-29T09:08:36.556Z,49.99
2023-06-29T09:09:36.822Z,51.04
2023-06-29T09:10:37.197Z,51.51
2023-06-29T09:11:38.511Z,51.99
2023-06-29T09:12:38.933Z,53.33
2023-06-29T09:13:39.671Z,53.23
2023-06-29T09:14:40.198Z,52.77
2023-06-29T09:15:40.987Z,49.78
2023-06-29T09:16:41.818Z,49.1
2023-06-29T09:17:41.892Z,48.71
2023-06-29T09:18:42.102Z,49.56
2023-06-29T09:19:42.620Z,50.26
2023-06-29T09:20:43.717Z,51.04
2023-06-29T09:21:44.002Z,50.58
2023-06-29T09:22:44.545Z,48.17
2023-06-29T09:23:45.271Z,47.31
2023-06-29T09:25:10.239Z,47.34
2023-06-29T09:25:48.725Z,47.85
2023-06-29T09:26:49.546Z,46.48
2023-06-29T09:27:50.468Z,46.48
2023-06-29T09:28:50.656Z,48.16
2023-06-29T09:29:51.613Z,47.38
2023-06-29T09:30:52.883Z,46.41
2023-06-29T09:31:53.339Z,46.21
2023-06-29T09:32:53.704Z,46.8
2023-06-29T09:33:54.502Z,46.99
2023-06-29T09:34:55.246Z,47.77
2023-06-29T09:35:55.963Z,47.97
2023-06-29T09:36:56.831Z,47.19
2023-06-29T09:37:57.382Z,46.7
2023-06-29T09:38:58.488Z,46.31
2023-06-29T09:39:59.410Z,46.33
2023-06-29T09:41:00.437Z,46.43
2023-06-29T09:42:00.624Z,45.75
2023-06-29T09:43:00.822Z,45.75
2023-06-29T09:44:01.614Z,46.55
2023-06-29T09:45:02.346Z,45.08
2023-06-29T09:46:03.364Z,44.69
2023-06-29T09:49:16.790Z,45.72
2023-06-29T09:50:17.047Z,44.84
2023-06-29T09:51:17.408Z,46.41
2023-06-29T09:52:17.699Z,45.72
2023-06-29T09:53:18.413Z,45.62
2023-06-29T09:54:19.181Z,45.72
2023-06-29T09:55:19.697Z,46.53
2023-06-29T09:56:20.243Z,47.21
2023-06-29T09:57:20.223Z,46.23
2023-06-29T09:58:20.695Z,45.75
2023-06-29T10:00:21.597Z,45.43
2023-06-29T10:01:23.102Z,47.27
2023-06-29T10:02:23.426Z,47.95
2023-06-29T10:03:23.710Z,47.17
2023-06-29T10:04:24.133Z,47.17
2023-06-29T10:05:24.688Z,46.48
2023-06-29T10:06:25.457Z,47.05
2023-06-29T10:07:26.044Z,47.12
2023-06-29T10:08:26.326Z,47.51
2023-06-29T10:09:26.945Z,46.8
2023-06-29T10:10:27.923Z,47.58
2023-06-29T10:11:28.527Z,48.54
2023-06-29T10:12:28.542Z,48.95
2023-06-29T10:13:29.391Z,49.83
2023-06-29T10:14:30.157Z,49.34
2023-06-29T10:15:30.895Z,49.24
2023-06-29T10:16:31.748Z,49.02
2023-06-29T10:17:32.776Z,49.02
2023-06-29T10:18:33.399Z,49.22
2023-06-29T10:19:33.701Z,49.12
2023-06-29T10:20:34.586Z,49.02
2023-06-29T10:21:34.907Z,48.85
2023-06-29T10:22:35.858Z,50.51
2023-06-29T10:23:36.586Z,50.14
2023-06-29T10:24:37.128Z,50.16
2023-06-29T10:25:37.945Z,49.29
2023-06-29T10:26:38.899Z,47.92
2023-06-29T10:27:39.732Z,47.27
2023-06-29T10:28:40.826Z,48.34
2023-06-29T10:29:40.934Z,48.73
2023-06-29T10:30:42.065Z,48.54
2023-06-29T10:31:42.840Z,47.58
2023-06-29T10:32:43.021Z,47.09
2023-06-29T10:33:43.166Z,47.58
2023-06-29T10:34:44.130Z,47.31
2023-06-29T10:35:45.500Z,46.92
2023-06-29T10:36:45.686Z,49.36
2023-06-29T10:37:45.646Z,47.24
2023-06-29T10:38:46.724Z,47.53
2023-06-29T10:39:46.779Z,46.75
2023-06-29T10:40:47.981Z,47.14
2023-06-29T10:41:48.172Z,46.06
2023-06-29T10:42:48.783Z,46.57
2023-06-29T10:43:49.565Z,46.97
2023-06-29T10:44:50.293Z,44.62
2023-06-29T10:45:50.613Z,43.93
2023-06-29T10:46:51.195Z,44.71
2023-06-29T10:47:51.768Z,46.57
2023-06-29T10:48:54.472Z,44.52
2023-06-29T10:50:53.490Z,44.57
2023-06-29T10:51:53.457Z,46.62
2023-06-29T10:52:54.297Z,47.7
2023-06-29T10:53:55.045Z,47.38
2023-06-29T10:54:56.114Z,46.89
2023-06-29T10:55:57.144Z,47.31
2023-06-29T10:56:58.084Z,47.21
2023-06-29T10:57:59.070Z,46.04
2023-06-29T10:58:59.641Z,46.16
2023-06-29T11:00:00.301Z,48.11
2023-06-29T11:01:00.653Z,46.55
2023-06-29T11:02:01.818Z,46.65
2023-06-29T11:03:02.047Z,46.26
2023-06-29T11:04:02.398Z,46.47
2023-06-29T11:05:02.613Z,45.1
2023-06-29T11:06:02.840Z,45.89
2023-06-29T11:09:06.232Z,46.47
2023-06-29T11:10:07.158Z,45.79
2023-06-29T11:11:07.742Z,46.57
2023-06-29T11:12:08.662Z,46.77
2023-06-29T11:13:08.722Z,46.57
2023-06-29T11:14:09.683Z,45.59
2023-06-29T11:15:25.542Z,43.84
2023-06-29T11:16:11.091Z,45.18
2023-06-29T11:17:11.724Z,45.97
2023-06-29T11:18:12.835Z,45.47
2023-06-29T11:19:16.213Z,44.79
2023-06-29T11:21:15.240Z,46.55
2023-06-29T11:22:16.153Z,46.47
2023-06-29T11:23:16.864Z,46.18
2023-06-29T11:24:17.649Z,44.13
2023-06-29T11:25:17.930Z,44.62
2023-06-29T11:26:18.884Z,45.1
2023-06-29T11:27:19.379Z,45.98
2023-06-29T11:28:20.146Z,43.63
2023-06-29T11:29:20.910Z,42.95
2023-06-29T11:30:21.237Z,43.23
2023-06-29T11:31:22.250Z,44.48
2023-06-29T11:32:22.338Z,45.55
2023-06-29T11:33:39.151Z,47.21
2023-06-29T11:34:24.073Z,48.09
2023-06-29T11:35:24.539Z,46.33
2023-06-29T11:36:25.241Z,45.86
2023-06-29T11:37:29.070Z,46.65
2023-06-29T11:38:27.268Z,45.67
2023-06-29T11:39:27.602Z,45.1
2023-06-29T11:40:28.219Z,44.91
2023-06-29T11:41:28.795Z,43.84
2023-06-29T11:42:29.746Z,43.95
2023-06-29T11:43:31.254Z,43.19
2023-06-29T11:44:31.193Z,43.88
2023-06-29T11:45:31.953Z,42.6
2023-06-29T11:46:32.442Z,42.31
2023-06-29T11:47:37.362Z,43.68
2023-06-29T11:48:33.373Z,45.34
2023-06-29T11:49:34.229Z,44.56
2023-06-29T11:50:35.149Z,43.66
2023-06-29T11:51:35.078Z,43.37
2023-06-29T11:52:36.126Z,43.63
2023-06-29T11:53:37.113Z,43.62
2023-06-29T11:54:37.075Z,44.87
2023-06-29T11:55:37.524Z,44.96
2023-06-29T11:56:38.122Z,45.75
2023-06-29T11:57:39.099Z,44.87
2023-06-29T11:58:39.924Z,44.57
2023-06-29T11:59:40.744Z,44.57
2023-06-29T12:00:41.516Z,44.87
2023-06-29T12:01:41.812Z,45.84
2023-06-29T12:02:42.721Z,45.06
2023-06-29T12:03:43.253Z,44.59
2023-06-29T12:04:43.816Z,45.5
2023-06-29T12:05:44.466Z,44.81
2023-06-29T12:06:45.455Z,44.83
2023-06-29T12:07:45.972Z,44.64
2023-06-29T12:08:46.611Z,41.99
2023-06-29T12:09:46.661Z,41.88
2023-06-29T12:10:46.962Z,42.44
2023-06-29T12:11:47.543Z,43.81
2023-06-29T12:12:48.051Z,45.45
2023-06-29T12:13:49.021Z,43.99
2023-06-29T12:14:50.112Z,43.87
2023-06-29T12:18:00.231Z,45.7
2023-06-29T12:18:52.069Z,48.44
2023-06-29T12:20:13.788Z,45.72
2023-06-29T12:22:04.289Z,45.84
2023-06-29T12:23:04.313Z,44.87
2023-06-29T12:24:05.171Z,45.18
2023-06-29T12:25:05.899Z,43.32
2023-06-29T12:26:06.595Z,42.35
2023-06-29T12:27:07.591Z,42.54
2023-06-29T12:28:08.105Z,43.1
2023-06-29T12:29:09.098Z,43.69
2023-06-29T12:30:10.047Z,44.06
2023-06-29T12:31:10.307Z,44.16
2023-06-29T12:32:11.210Z,45.04
2023-06-29T12:33:11.819Z,44.55
2023-06-29T12:34:12.372Z,43.87
2023-06-29T12:35:14.517Z,45.23
2023-06-29T12:36:13.267Z,45.72
2023-06-29T12:37:14.003Z,46.6
2023-06-29T12:38:14.852Z,45.92
2023-06-29T12:39:15.777Z,45.06
2023-06-29T12:40:16.219Z,45.37
2023-06-29T12:41:16.424Z,44.59
2023-06-29T12:42:16.951Z,44.59
2023-06-29T12:43:16.891Z,43.81
2023-06-29T12:44:18.132Z,45.08
2023-06-29T12:45:19.126Z,44.79
2023-06-29T12:46:19.879Z,45.01
2023-06-29T12:47:21.218Z,43.24
2023-06-29T12:48:21.854Z,44.2
2023-06-29T12:49:22.774Z,43.52
2023-06-29T12:50:23.080Z,42.46
2023-06-29T12:51:23.989Z,43.34
2023-06-29T12:52:24.781Z,43.93
2023-06-29T12:53:25.769Z,44.64
2023-06-29T12:54:26.554Z,43.95
2023-06-29T12:55:27.352Z,43.07
2023-06-29T12:56:27.542Z,42.41
2023-06-29T12:57:28.150Z,43.48
2023-06-29T12:58:29.259Z,43.38
2023-06-29T12:59:29.851Z,42.99
2023-06-29T13:00:30.821Z,43.6
2023-06-29T13:01:31.041Z,43.12
2023-06-29T13:02:32.021Z,43.12
2023-06-29T13:03:32.668Z,42.43
2023-06-29T13:04:35.093Z,41.35
2023-06-29T13:05:32.834Z,41.27
2023-06-29T13:06:33.585Z,41.96
2023-06-29T13:07:34.748Z,40.88
2023-06-29T13:08:35.560Z,39.9
2023-06-29T13:09:36.300Z,40.48
2023-06-29T13:10:39.580Z,40.47
2023-06-29T13:12:38.659Z,42.5
2023-06-29T13:13:39.731Z,42.21
2023-06-29T13:14:40.548Z,42.41
2023-06-29T13:15:41.312Z,43.56
2023-06-29T13:16:41.426Z,43.07
2023-06-29T13:17:42.426Z,43.27
2023-06-29T13:18:43.566Z,43.27
2023-06-29T13:19:43.615Z,43.37
2023-06-29T13:20:43.930Z,42.29
2023-06-29T13:21:44.752Z,41.82
2023-06-29T13:22:45.351Z,41.33
2023-06-29T13:23:45.935Z,41.03
2023-06-29T13:24:46.170Z,40.55
2023-06-29T13:25:47.503Z,40.45